createdAt,value
2023-01-31T00:02:15.539Z,2.70
2023-01-31T00:04:53.093Z,2.10
2023-01-31T00:07:27.008Z,2.30
2023-01-31T00:09:55.178Z,3.00
2023-01-31T00:12:23.701Z,2.70
2023-01-31T00:15:01.124Z,2.10
2023-01-31T00:17:32.093Z,2.70
2023-01-31T00:22:42.753Z,2.50
2023-01-31T00:25:14.052Z,3.70
2023-01-31T00:27:42.310Z,2.20
2023-01-31T00:30:15.371Z,1.60
2023-01-31T00:32:47.049Z,2.00
2023-01-31T00:35:15.346Z,2.30
2023-01-31T00:37:45.705Z,2.30
2023-01-31T00:40:18.107Z,2.20
2023-01-31T00:42:47.101Z,1.80
2023-01-31T00:48:27.055Z,2.10
2023-01-31T00:51:15.270Z,3.10
2023-01-31T00:54:06.728Z,2.60
2023-01-31T00:56:35.693Z,2.60
2023-01-31T00:59:24.781Z,2.30
2023-01-31T01:01:56.135Z,1.80
2023-01-31T01:04:47.694Z,2.20
2023-01-31T01:07:38.356Z,2.10
2023-01-31T01:10:10.326Z,1.70
2023-01-31T01:12:43.828Z,2.50
2023-01-31T01:15:19.230Z,1.90
2023-01-31T01:17:54.709Z,1.80
2023-01-31T01:20:23.044Z,2.10
2023-01-31T01:23:01.825Z,2.40
2023-01-31T01:25:41.408Z,2.10
2023-01-31T01:28:19.006Z,2.00
2023-01-31T01:31:04.567Z,2.00
2023-01-31T01:33:45.531Z,2.10
2023-01-31T01:36:17.580Z,2.60
2023-01-31T01:38:46.229Z,2.50
2023-01-31T01:41:14.993Z,2.70
2023-01-31T01:43:53.502Z,1.80
2023-01-31T01:46:34.093Z,1.80
2023-01-31T01:49:17.368Z,3.10
2023-01-31T01:51:46.774Z,2.20
2023-01-31T01:54:21.147Z,1.60
2023-01-31T01:56:54.319Z,2.30
2023-01-31T01:59:28.764Z,2.10
2023-01-31T02:02:11.835Z,1.50
2023-01-31T02:04:41.029Z,2.80
2023-01-31T02:07:34.475Z,2.20
2023-01-31T02:10:13.022Z,2.30
2023-01-31T02:12:41.159Z,2.80
2023-01-31T02:15:12.942Z,1.80
2023-01-31T02:17:47.551Z,2.50
2023-01-31T02:20:31.583Z,2.30
2023-01-31T02:23:03.182Z,2.50
2023-01-31T02:25:48.625Z,3.50
2023-01-31T02:28:35.959Z,2.40
2023-01-31T02:31:24.183Z,2.30
2023-01-31T02:34:23.931Z,3.20
2023-01-31T02:37:20.864Z,3.10
2023-01-31T02:40:01.419Z,3.70
2023-01-31T02:43:02.825Z,3.20
2023-01-31T02:45:31.439Z,2.10
2023-01-31T02:48:12.837Z,2.80
2023-01-31T02:50:58.413Z,2.80
2023-01-31T02:53:42.724Z,3.00
2023-01-31T02:56:20.434Z,4.90
2023-01-31T03:02:33.557Z,4.70
2023-01-31T03:05:02.590Z,6.70
2023-01-31T03:07:32.918Z,24.10
2023-01-31T03:10:22.021Z,7.60
2023-01-31T03:12:55.079Z,2.70
2023-01-31T03:15:59.358Z,4.30
2023-01-31T03:18:30.035Z,3.00
2023-01-31T03:21:07.749Z,2.40
2023-01-31T03:23:52.208Z,4.30
2023-01-31T03:26:30.709Z,4.40
2023-01-31T03:29:10.854Z,4.80
2023-01-31T03:31:47.204Z,3.20
2023-01-31T03:34:18.097Z,3.70
2023-01-31T03:37:15.598Z,3.90
2023-01-31T03:39:53.078Z,5.70
2023-01-31T03:42:29.066Z,4.20
2023-01-31T03:45:27.151Z,5.00
2023-01-31T03:47:56.905Z,2.60
2023-01-31T03:50:37.035Z,2.50
2023-01-31T03:53:14.958Z,3.70
2023-01-31T03:55:46.010Z,2.20
2023-01-31T03:58:20.747Z,3.50
2023-01-31T04:00:53.159Z,2.00
2023-01-31T04:03:27.737Z,3.30
2023-01-31T04:05:56.470Z,3.10
2023-01-31T04:08:25.219Z,4.70
2023-01-31T04:11:05.001Z,3.40
2023-01-31T04:13:33.021Z,2.60
2023-01-31T04:16:01.366Z,2.70
2023-01-31T04:18:29.775Z,2.90
2023-01-31T04:21:21.565Z,3.00
2023-01-31T04:23:49.827Z,3.50
2023-01-31T04:26:28.039Z,2.70
2023-01-31T04:28:56.044Z,3.70
2023-01-31T04:34:00.516Z,3.00
2023-01-31T04:36:37.770Z,4.90
2023-01-31T04:39:26.159Z,5.60
2023-01-31T04:44:25.115Z,4.50
2023-01-31T04:46:53.524Z,6.40
2023-01-31T04:49:27.281Z,4.70
2023-01-31T04:52:37.143Z,4.50
2023-01-31T04:55:24.283Z,4.00
2023-01-31T04:57:52.381Z,4.20
2023-01-31T05:00:20.643Z,6.40
2023-01-31T05:03:07.519Z,3.80
2023-01-31T05:05:38.770Z,2.80
2023-01-31T05:08:19.107Z,2.80
2023-01-31T05:10:47.083Z,3.60
2023-01-31T05:13:15.209Z,4.80
2023-01-31T05:15:50.706Z,4.20
2023-01-31T05:18:18.744Z,4.90
2023-01-31T05:20:50.671Z,3.30
2023-01-31T05:23:19.168Z,4.50
2023-01-31T05:25:49.713Z,2.90
2023-01-31T05:28:18.090Z,3.00
2023-01-31T05:30:46.142Z,3.90
2023-01-31T05:33:14.496Z,6.20
2023-01-31T05:35:45.655Z,3.00
2023-01-31T05:38:13.907Z,3.10
2023-01-31T05:40:42.174Z,2.70
2023-01-31T05:43:12.904Z,2.30
2023-01-31T05:45:41.627Z,2.70
2023-01-31T05:48:10.230Z,2.90
2023-01-31T05:50:38.299Z,2.60
2023-01-31T05:53:12.268Z,3.10
2023-01-31T05:55:40.430Z,2.80
2023-01-31T05:58:08.492Z,2.20
2023-01-31T06:00:47.236Z,2.40
2023-01-31T06:03:15.666Z,2.40
2023-01-31T06:05:43.747Z,2.40
2023-01-31T06:08:14.928Z,2.30
2023-01-31T06:10:45.226Z,2.60
2023-01-31T06:13:18.729Z,3.80
2023-01-31T06:15:46.897Z,2.50
2023-01-31T06:18:18.161Z,2.40
2023-01-31T06:20:56.436Z,3.20
2023-01-31T06:23:24.547Z,2.70
2023-01-31T06:25:55.665Z,4.10
2023-01-31T06:28:23.652Z,5.20
2023-01-31T06:30:51.804Z,4.30
2023-01-31T06:33:19.965Z,3.40
2023-01-31T06:35:50.718Z,2.50
2023-01-31T06:38:18.870Z,3.20
2023-01-31T06:40:46.767Z,2.50
2023-01-31T06:45:51.714Z,3.10
2023-01-31T06:48:22.246Z,2.40
2023-01-31T06:50:50.571Z,4.00
2023-01-31T06:53:18.645Z,3.00
2023-01-31T06:55:46.620Z,7.10
2023-01-31T07:01:52.372Z,5.90
2023-01-31T07:04:22.369Z,2.40
2023-01-31T07:06:49.008Z,3.50
2023-01-31T07:09:15.595Z,2.90
2023-01-31T07:11:42.391Z,3.80
2023-01-31T07:14:09.320Z,3.00
2023-01-31T07:16:38.522Z,3.70
2023-01-31T07:19:05.461Z,4.00
2023-01-31T07:21:32.925Z,4.00
2023-01-31T07:23:59.727Z,3.30
2023-01-31T07:26:35.649Z,3.10
2023-01-31T07:29:12.523Z,3.50
2023-01-31T07:31:39.402Z,2.80
2023-01-31T07:34:06.127Z,4.30
2023-01-31T07:36:32.680Z,3.50
2023-01-31T07:39:01.198Z,3.20
2023-01-31T07:41:28.056Z,3.80
2023-01-31T07:43:54.634Z,3.20
2023-01-31T07:46:21.222Z,2.40
2023-01-31T07:48:48.273Z,2.80
2023-01-31T07:51:18.486Z,3.00
2023-01-31T07:53:45.547Z,3.30
2023-01-31T07:56:18.711Z,2.70
2023-01-31T07:58:51.307Z,2.70
2023-01-31T08:01:40.880Z,2.70
2023-01-31T08:04:21.241Z,3.10
2023-01-31T08:06:50.473Z,2.20
2023-01-31T08:09:17.437Z,2.60
2023-01-31T08:11:46.395Z,2.10
2023-01-31T08:14:25.044Z,2.60
2023-01-31T08:16:52.110Z,2.00
2023-01-31T08:19:27.706Z,1.60
2023-01-31T08:21:56.694Z,1.70
2023-01-31T08:24:23.150Z,1.10
2023-01-31T08:26:52.918Z,4.10
2023-01-31T08:29:19.610Z,2.50
2023-01-31T08:31:51.085Z,2.40
2023-01-31T08:34:18.675Z,2.70
2023-01-31T08:36:45.314Z,3.50
2023-01-31T08:39:12.056Z,5.30
2023-01-31T08:41:38.801Z,2.90
2023-01-31T08:44:08.401Z,4.70
2023-01-31T08:46:37.789Z,27.90
2023-01-31T08:49:14.543Z,20.00
2023-01-31T08:51:44.597Z,53.80
2023-01-31T08:54:48.200Z,21.60
2023-01-31T08:57:20.175Z,6.20
2023-01-31T09:03:04.791Z,5.30
2023-01-31T09:05:33.621Z,21.90
2023-01-31T09:08:02.132Z,11.60
2023-01-31T09:10:30.291Z,11.00
2023-01-31T09:13:03.793Z,6.70
2023-01-31T09:15:31.734Z,6.40
2023-01-31T09:17:59.741Z,5.70
2023-01-31T09:20:27.909Z,6.50
2023-01-31T09:22:56.001Z,10.10
2023-01-31T09:25:42.419Z,21.30
2023-01-31T09:28:13.636Z,12.70
2023-01-31T09:30:44.156Z,12.80
2023-01-31T09:33:12.070Z,6.00
2023-01-31T09:35:40.152Z,4.20
2023-01-31T09:38:08.669Z,3.80
2023-01-31T09:40:39.203Z,3.40
2023-01-31T09:43:11.934Z,7.50
2023-01-31T09:45:44.090Z,4.60
2023-01-31T09:48:18.232Z,8.70
2023-01-31T09:50:48.688Z,15.50
2023-01-31T09:53:27.106Z,5.80
2023-01-31T09:56:04.430Z,7.70
2023-01-31T09:58:38.602Z,6.30
2023-01-31T10:01:14.218Z,5.60
2023-01-31T10:04:01.022Z,8.30
2023-01-31T10:06:33.320Z,5.90
2023-01-31T10:09:10.600Z,3.40
2023-01-31T10:11:45.048Z,5.40
2023-01-31T10:14:22.082Z,17.00
2023-01-31T10:17:10.010Z,5.50
2023-01-31T10:19:45.415Z,6.20
2023-01-31T10:22:20.871Z,8.40
2023-01-31T10:24:57.993Z,7.20
2023-01-31T10:27:49.102Z,8.00
2023-01-31T10:30:19.492Z,6.80
2023-01-31T10:32:51.759Z,11.30
2023-01-31T10:35:31.380Z,29.70
2023-01-31T10:38:20.454Z,14.10
2023-01-31T10:41:11.715Z,12.10
2023-01-31T10:43:44.813Z,18.10
2023-01-31T10:46:14.040Z,29.10
2023-01-31T10:48:46.835Z,17.10
2023-01-31T10:51:24.430Z,27.00
2023-01-31T10:54:13.200Z,17.60
2023-01-31T10:56:48.422Z,27.40
2023-01-31T10:59:22.976Z,21.10
2023-01-31T11:01:54.316Z,15.70
2023-01-31T11:04:31.702Z,14.40
2023-01-31T11:07:06.010Z,20.30
2023-01-31T11:09:37.457Z,24.60
2023-01-31T11:12:06.758Z,10.50
2023-01-31T11:14:36.416Z,10.20
2023-01-31T11:17:18.969Z,12.30
2023-01-31T11:19:49.486Z,7.10
2023-01-31T11:22:25.056Z,12.20
2023-01-31T11:24:53.853Z,6.60
2023-01-31T11:27:25.413Z,14.90
2023-01-31T11:29:55.707Z,21.40
2023-01-31T11:32:26.451Z,53.20
2023-01-31T11:35:04.870Z,18.90
2023-01-31T11:37:34.645Z,27.20
2023-01-31T11:40:03.159Z,17.90
2023-01-31T11:42:31.066Z,20.20
2023-01-31T11:45:03.884Z,16.00
2023-01-31T11:47:55.865Z,11.90
2023-01-31T11:50:28.282Z,26.80
2023-01-31T11:53:25.552Z,32.90
2023-01-31T11:55:55.483Z,4.90
2023-01-31T11:58:26.054Z,23.50
2023-01-31T12:01:07.175Z,8.00
2023-01-31T12:03:35.589Z,5.10
2023-01-31T12:06:10.191Z,5.80
2023-01-31T12:08:44.137Z,3.50
2023-01-31T12:11:20.566Z,5.30
2023-01-31T12:13:54.339Z,4.10
2023-01-31T12:16:26.545Z,4.90
2023-01-31T12:19:17.256Z,4.60
2023-01-31T12:21:53.076Z,3.80
2023-01-31T12:24:40.215Z,6.30
2023-01-31T12:27:21.092Z,4.00
2023-01-31T12:29:58.684Z,6.00
2023-01-31T12:32:35.947Z,8.80
2023-01-31T12:35:17.446Z,8.30
2023-01-31T12:38:04.508Z,6.90
2023-01-31T12:40:39.179Z,4.90
2023-01-31T12:43:28.672Z,5.50
2023-01-31T12:46:23.539Z,19.90
2023-01-31T12:48:53.886Z,25.60
2023-01-31T12:51:31.350Z,25.60
2023-01-31T12:54:05.094Z,20.70
2023-01-31T12:57:16.711Z,17.30
2023-01-31T13:00:23.168Z,11.00
2023-01-31T13:03:30.039Z,15.40
2023-01-31T13:06:04.291Z,8.40
2023-01-31T13:08:33.377Z,8.30
2023-01-31T13:11:15.780Z,9.10
2023-01-31T13:13:50.484Z,9.70
2023-01-31T13:16:26.668Z,15.80
2023-01-31T13:19:04.293Z,13.40
2023-01-31T13:21:37.938Z,14.90
2023-01-31T13:24:15.243Z,13.30
2023-01-31T13:26:52.469Z,16.90
2023-01-31T13:29:33.511Z,17.60
2023-01-31T13:32:07.005Z,13.60
2023-01-31T13:34:39.945Z,11.90
2023-01-31T13:37:10.750Z,17.00
2023-01-31T13:39:48.760Z,29.30
2023-01-31T13:42:18.294Z,56.60
2023-01-31T13:44:56.247Z,12.80
2023-01-31T13:47:28.001Z,11.70
2023-01-31T13:50:01.589Z,10.50
2023-01-31T13:52:49.166Z,6.90
2023-01-31T13:55:20.762Z,6.60
2023-01-31T13:57:58.069Z,6.80
2023-01-31T14:00:44.763Z,8.00
2023-01-31T14:03:14.684Z,6.50
2023-01-31T14:05:45.163Z,4.60
2023-01-31T14:08:37.485Z,5.70
2023-01-31T14:11:28.590Z,6.50
2023-01-31T14:14:19.264Z,5.20
2023-01-31T14:16:52.927Z,6.40
2023-01-31T14:19:24.423Z,4.90
2023-01-31T14:21:53.986Z,5.60
2023-01-31T14:24:42.074Z,9.20
2023-01-31T14:27:28.887Z,15.50
2023-01-31T14:30:13.404Z,15.90
2023-01-31T14:32:47.012Z,69.40
2023-01-31T14:35:15.000Z,14.30
2023-01-31T14:37:52.333Z,10.30
2023-01-31T14:40:51.220Z,13.20
2023-01-31T14:43:37.995Z,10.90
2023-01-31T14:46:12.278Z,49.30
2023-01-31T14:48:53.795Z,41.30
2023-01-31T14:51:42.734Z,35.20
2023-01-31T14:54:25.841Z,13.30
2023-01-31T14:57:14.529Z,23.80
2023-01-31T15:00:20.584Z,45.40
2023-01-31T15:02:52.190Z,17.10
2023-01-31T15:05:42.850Z,16.20
2023-01-31T15:08:30.315Z,13.00
2023-01-31T15:11:14.900Z,13.90
2023-01-31T15:13:58.170Z,10.80
2023-01-31T15:16:26.237Z,15.50
2023-01-31T15:19:03.510Z,9.80
2023-01-31T15:21:45.683Z,14.50
2023-01-31T15:24:17.474Z,10.00
2023-01-31T15:26:49.603Z,21.70
2023-01-31T15:29:29.562Z,13.30
2023-01-31T15:32:01.117Z,15.70
2023-01-31T15:34:36.957Z,10.60
2023-01-31T15:37:05.089Z,14.70
2023-01-31T15:39:36.589Z,14.60
2023-01-31T15:42:37.475Z,15.00
2023-01-31T15:45:14.813Z,22.30
2023-01-31T15:47:43.405Z,30.00
2023-01-31T15:50:19.184Z,27.20
2023-01-31T15:52:47.348Z,20.40
2023-01-31T15:55:17.800Z,28.10
2023-01-31T15:57:49.593Z,30.60
2023-01-31T16:00:30.794Z,47.30
2023-01-31T16:03:04.194Z,30.60
2023-01-31T16:05:35.171Z,28.50
2023-01-31T16:08:05.232Z,35.50
2023-01-31T16:10:33.466Z,27.90
2023-01-31T16:13:01.948Z,19.50
2023-01-31T16:15:30.864Z,36.70
2023-01-31T16:18:02.647Z,23.20
2023-01-31T16:20:41.929Z,28.40
2023-01-31T16:23:26.835Z,16.30
2023-01-31T16:26:01.628Z,10.10
2023-01-31T16:28:30.684Z,11.90
2023-01-31T16:31:10.184Z,19.80
2023-01-31T16:33:41.897Z,13.60
2023-01-31T16:36:17.342Z,16.40
2023-01-31T16:39:00.524Z,17.10
2023-01-31T16:42:01.150Z,20.60
2023-01-31T16:44:33.186Z,5.60
2023-01-31T16:47:04.548Z,15.70
2023-01-31T16:49:35.733Z,8.40
2023-01-31T16:52:03.959Z,12.60
2023-01-31T16:54:42.781Z,15.90
2023-01-31T16:57:27.250Z,32.60
2023-01-31T16:59:58.581Z,32.80
2023-01-31T17:02:31.562Z,20.30
2023-01-31T17:05:15.120Z,13.50
2023-01-31T17:07:44.106Z,9.10
2023-01-31T17:10:22.242Z,9.70
2023-01-31T17:12:51.710Z,8.30
2023-01-31T17:15:29.868Z,7.60
2023-01-31T17:18:01.287Z,9.10
2023-01-31T17:20:29.533Z,15.60
2023-01-31T17:23:03.153Z,16.20
2023-01-31T17:25:34.074Z,18.80
2023-01-31T17:28:02.573Z,14.10
2023-01-31T17:30:31.429Z,23.30
2023-01-31T17:33:02.271Z,12.40
2023-01-31T17:35:32.561Z,14.40
2023-01-31T17:38:00.578Z,15.40
2023-01-31T17:40:31.168Z,29.00
2023-01-31T17:43:01.704Z,36.90
2023-01-31T17:45:32.648Z,13.30
2023-01-31T17:48:14.432Z,10.20
2023-01-31T17:50:46.438Z,46.80
2023-01-31T17:53:14.519Z,26.50
2023-01-31T17:55:45.036Z,16.50
2023-01-31T17:58:13.918Z,12.60
2023-01-31T18:00:42.220Z,7.60
2023-01-31T18:03:15.865Z,26.60
2023-01-31T18:05:44.329Z,17.30
2023-01-31T18:08:13.398Z,11.60
2023-01-31T18:10:43.879Z,20.50
2023-01-31T18:13:14.118Z,18.10
2023-01-31T18:15:45.239Z,7.80
2023-01-31T18:18:22.053Z,13.00
2023-01-31T18:20:55.637Z,29.20
2023-01-31T18:23:34.894Z,16.10
2023-01-31T18:26:04.004Z,11.50
2023-01-31T18:28:32.574Z,6.00
2023-01-31T18:31:14.053Z,8.60
2023-01-31T18:33:43.883Z,5.00
2023-01-31T18:36:17.315Z,4.00
2023-01-31T18:38:46.780Z,5.30
2023-01-31T18:41:19.475Z,6.60
2023-01-31T18:43:48.512Z,6.10
2023-01-31T18:46:17.323Z,4.50
2023-01-31T18:48:45.518Z,4.60
2023-01-31T18:51:14.752Z,6.10
2023-01-31T18:53:46.266Z,5.20
2023-01-31T18:56:17.284Z,4.80
2023-01-31T18:58:45.743Z,2.50
2023-01-31T19:01:17.541Z,3.30
2023-01-31T19:03:50.264Z,2.90
2023-01-31T19:06:21.859Z,3.20
2023-01-31T19:08:50.839Z,3.00
2023-01-31T19:11:29.455Z,6.10
2023-01-31T19:14:18.099Z,3.00
2023-01-31T19:16:46.173Z,3.30
2023-01-31T19:19:14.459Z,2.50
2023-01-31T19:21:54.541Z,2.20
2023-01-31T19:24:23.062Z,11.50
2023-01-31T19:26:51.183Z,8.40
2023-01-31T19:29:19.259Z,9.40
2023-01-31T19:31:49.967Z,6.00
2023-01-31T19:34:21.678Z,3.20
2023-01-31T19:36:49.804Z,3.60
2023-01-31T19:39:17.967Z,2.50
2023-01-31T19:41:48.910Z,3.00
2023-01-31T19:44:17.193Z,2.90
2023-01-31T19:46:46.592Z,2.30
2023-01-31T20:01:28.213Z,2.60
2023-01-31T20:04:03.740Z,2.50
2023-01-31T20:06:32.808Z,2.90
2023-01-31T20:09:14.844Z,2.20
2023-01-31T20:11:51.992Z,2.80
2023-01-31T20:14:23.458Z,3.00
2023-01-31T20:16:54.880Z,3.20
2023-01-31T20:19:23.009Z,2.40
2023-01-31T20:21:51.026Z,3.10
2023-01-31T20:24:18.992Z,2.20
2023-01-31T20:26:49.551Z,2.10
2023-01-31T20:29:17.891Z,2.40
2023-01-31T20:31:48.626Z,2.20
2023-01-31T20:34:16.821Z,2.50
2023-01-31T20:36:45.065Z,1.70
2023-01-31T20:39:13.315Z,2.30
2023-01-31T20:41:41.574Z,3.30
2023-01-31T20:44:09.484Z,3.30
2023-01-31T20:46:37.526Z,2.60
2023-01-31T20:49:05.867Z,2.60
2023-01-31T20:51:34.069Z,3.30
2023-01-31T20:54:22.406Z,2.30
2023-01-31T20:56:52.041Z,2.60
2023-01-31T20:59:20.495Z,2.20
2023-01-31T21:02:07.050Z,2.90
2023-01-31T21:04:38.694Z,2.90
2023-01-31T21:07:16.956Z,2.60
2023-01-31T21:09:47.628Z,2.90
2023-01-31T21:12:25.006Z,2.50
2023-01-31T21:14:55.517Z,2.50
2023-01-31T21:17:39.877Z,2.90
2023-01-31T21:20:11.656Z,2.40
2023-01-31T21:22:51.656Z,2.40
2023-01-31T21:25:22.612Z,2.00
2023-01-31T21:27:53.553Z,1.80
2023-01-31T21:30:21.809Z,2.80
2023-01-31T21:32:50.322Z,2.80
2023-01-31T21:35:28.640Z,2.70
2023-01-31T21:37:56.751Z,2.10
2023-01-31T21:40:24.844Z,2.30
2023-01-31T21:42:53.585Z,2.40
2023-01-31T21:45:39.559Z,2.70
2023-01-31T21:48:29.602Z,2.80
2023-01-31T21:51:05.873Z,2.40
2023-01-31T21:53:37.110Z,2.20
2023-01-31T21:58:35.943Z,1.70
2023-01-31T22:01:05.251Z,1.80
2023-01-31T22:03:34.446Z,2.20
2023-01-31T22:06:07.134Z,2.10
2023-01-31T22:08:35.325Z,2.40
2023-01-31T22:11:06.432Z,2.40
2023-01-31T22:16:07.370Z,2.40
2023-01-31T22:18:38.231Z,2.00
2023-01-31T22:21:08.046Z,2.40
2023-01-31T22:23:39.714Z,2.40
2023-01-31T22:26:15.072Z,2.30
2023-01-31T22:28:43.048Z,2.60
2023-01-31T22:31:11.680Z,2.10
2023-01-31T22:33:40.791Z,2.30
2023-01-31T22:36:09.876Z,2.30
2023-01-31T22:38:38.188Z,2.40
2023-01-31T22:41:07.804Z,3.10
2023-01-31T22:43:37.328Z,2.70
2023-01-31T22:46:08.216Z,2.70
2023-01-31T22:48:36.237Z,2.60
2023-01-31T22:51:10.305Z,2.40
2023-01-31T22:53:41.849Z,2.50
2023-01-31T22:56:14.236Z,2.70
2023-01-31T22:58:43.115Z,2.70
2023-01-31T23:01:23.187Z,2.80
2023-01-31T23:03:51.372Z,2.30
2023-01-31T23:06:22.373Z,2.30
2023-01-31T23:08:50.655Z,2.20
2023-01-31T23:11:21.807Z,2.40
2023-01-31T23:14:00.083Z,2.00
2023-01-31T23:16:49.070Z,3.00
2023-01-31T23:19:17.356Z,2.10
2023-01-31T23:24:27.807Z,2.20
2023-01-31T23:26:57.803Z,2.40
2023-01-31T23:29:45.629Z,3.10
2023-01-31T23:32:13.896Z,2.70
2023-01-31T23:34:42.859Z,2.70
2023-01-31T23:37:14.221Z,2.30
2023-01-31T23:39:43.086Z,2.40
2023-01-31T23:42:14.227Z,2.50
2023-01-31T23:44:52.507Z,2.90
2023-01-31T23:47:43.302Z,2.20
2023-01-31T23:50:31.637Z,2.70
2023-01-31T23:53:04.574Z,2.60
2023-01-31T23:55:35.686Z,2.50
